Aérodrome :
LOGIN :

S'inscrire | Disclaimer

   EN    FR    IT 

 










Légende :    VFR   VFR Marginal   IFR   IFR Intensif   IFR Très Intensif
Visi : 
Plafond : 
>= 8 km
>= 3000ft
5 à 8 km
1000 à 3000 ft
1500m à 5 km
500 à 1000 ft
800 à 1500m
200 à 500 ft
< 800m
< 200 ft
Symboles :   Orages  Brouillard  Fortes neiges  Fortes précipitations  Vent > 20 kt
SIGMETs :   Divers  Orages  Givrage  Turbulence  Onde Orograph.  Cendres Volcan.







- Altitude de l'aérodrome : 295 ft
- Code IATA : ORN


DAOO - Es senia - Oran

DERNIER METAR :
  • 170330Z 29004KT 8000 FEW013 SCT023 11/08 Q1022

METARs EXPIRÉS :
  • 170300Z 33004KT 8000 FEW013 SCT023 11/08 Q1022
  • 170230Z 09006KT 8000 FEW013 BKN023 10/05 Q1022
  • 170200Z 05002KT 8000 FEW013 BKN023 11/08 Q1022
  • 170130Z 01004KT 8000 FEW013 BKN023 12/10 Q1022
  • 170100Z 03003KT 6000 FEW013 BKN023 12/11 Q1022

TAF TAF DAOO
Valide du 17 à 00h jusqu'au 18 à 00h UTC


162300Z 1700/1724 VRB02KT 2000 BR FEW013 SCT023
PROB30
TEMPO 1700/1703 0200 FG BKN010
BECMG 1704/1707 18015KT FEW013 BKN233
TEMPO 1714/1718 VRB02KT
Pas de NOTAMs connus pour ce terrain.



MET'MAP, la Météo Aéronautique d'un coup d'oeil ! - Copyright ORBIFLY Décembre 2007 - Disclaimer

ORBIFLY MET'MAP TEAM :

Programmation & Développement : Alexandra Zaïnal
Conception & Développement : Baudouin d'Aumeries
Co-Programmation & Développement : Marc-Olivier Méhu
Soutien technique & logistique : Manuel Goepfert

Contact : metmap@orbifly.com




SOURCES & CREDITS :

   NOAA